Time;durP1;ratioP1;P1;durP2;ratioP2;P2;SDS_P1;SDS_P2;PMS_P1;PMS_P2;Temp;Humidity;BMP_temperature;BMP_pressure;BME280_temperature;BME280_humidity;BME280_pressure;Samples;Min_cycle;Max_cycle;Signal;HPM_P1;HPM_P2
2021/09/11 00:00:45;;;;;;;5.65;3.08;;;17.30;99.90;;;;;;4983180;28;20099;-71
2021/09/11 00:03:11;;;;;;;8.38;3.13;;;17.20;99.90;;;;;;4997562;28;20088;-71
2021/09/11 00:05:37;;;;;;;7.55;2.85;;;17.20;99.90;;;;;;4981981;28;20022;-71
2021/09/11 00:08:03;;;;;;;7.13;3.05;;;17.20;99.90;;;;;;5001980;28;20038;-72
2021/09/11 00:10:30;;;;;;;9.43;2.67;;;17.10;99.90;;;;;;5001980;28;20027;-72
2021/09/11 00:12:56;;;;;;;10.50;3.00;;;17.10;99.90;;;;;;5002790;28;20049;-71
2021/09/11 00:15:22;;;;;;;6.28;2.90;;;17.10;99.90;;;;;;4983727;28;20042;-72
2021/09/11 00:17:48;;;;;;;7.60;2.85;;;17.00;99.90;;;;;;5014832;28;20033;-72
2021/09/11 00:20:14;;;;;;;7.88;3.00;;;17.00;99.90;;;;;;4983396;28;20026;-71
2021/09/11 00:22:39;;;;;;;17.20;3.63;;;17.00;99.90;;;;;;5004154;28;20030;-70
2021/09/11 00:25:05;;;;;;;6.00;3.13;;;17.00;99.90;;;;;;5001939;28;20039;-70
2021/09/11 00:27:31;;;;;;;12.30;3.15;;;17.00;99.90;;;;;;5002573;28;20042;-70
2021/09/11 00:29:57;;;;;;;8.68;2.88;;;17.00;99.90;;;;;;4984781;28;20502;-70
2021/09/11 00:32:23;;;;;;;7.38;3.33;;;17.00;99.90;;;;;;5001609;28;20031;-70
2021/09/11 00:34:48;;;;;;;7.38;3.42;;;16.90;99.90;;;;;;5003680;28;20034;-70
2021/09/11 00:37:14;;;;;;;10.02;3.65;;;16.90;99.90;;;;;;4983025;28;20422;-69
2021/09/11 00:39:39;;;;;;;9.00;3.63;;;16.90;99.90;;;;;;4989198;28;20050;-70
2021/09/11 00:42:05;;;;;;;6.13;2.67;;;16.90;99.90;;;;;;5001023;28;20049;-70
2021/09/11 00:44:31;;;;;;;8.15;3.75;;;16.90;99.90;;;;;;5002105;28;20037;-70
2021/09/11 00:46:57;;;;;;;9.70;3.90;;;16.90;99.90;;;;;;5001728;28;20041;-70
2021/09/11 00:49:22;;;;;;;8.13;3.72;;;16.80;99.90;;;;;;5001537;28;20042;-71
2021/09/11 00:51:49;;;;;;;8.25;3.70;;;16.80;99.90;;;;;;5002788;28;20552;-69
2021/09/11 00:54:15;;;;;;;9.55;3.80;;;16.80;99.90;;;;;;5000668;28;20093;-70
2021/09/11 00:56:40;;;;;;;9.80;4.63;;;16.80;99.90;;;;;;5003111;28;20574;-70
2021/09/11 00:59:06;;;;;;;13.35;4.75;;;16.80;99.90;;;;;;5000130;28;20117;-72
2021/09/11 01:01:32;;;;;;;10.90;4.15;;;16.80;99.90;;;;;;5002163;28;20462;-72
2021/09/11 01:03:57;;;;;;;11.95;4.85;;;16.70;99.90;;;;;;5001434;28;20030;-72
2021/09/11 01:06:24;;;;;;;13.80;4.90;;;16.70;99.90;;;;;;5001014;28;20031;-72
2021/09/11 01:08:52;;;;;;;8.73;4.78;;;16.70;99.90;;;;;;5001526;28;20049;-72
2021/09/11 01:11:17;;;;;;;13.30;5.40;;;16.70;99.90;;;;;;5000193;28;20553;-71
2021/09/11 01:13:43;;;;;;;9.82;4.53;;;16.70;99.90;;;;;;5002464;28;20029;-72
2021/09/11 01:16:09;;;;;;;11.55;5.15;;;16.60;99.90;;;;;;5000261;28;20545;-72
2021/09/11 01:18:35;;;;;;;12.18;5.07;;;16.60;99.90;;;;;;5004951;28;20037;-71
2021/09/11 01:21:01;;;;;;;10.07;4.85;;;16.60;99.90;;;;;;4982762;28;20061;-71
2021/09/11 01:23:27;;;;;;;15.13;5.25;;;16.60;99.90;;;;;;5000884;28;20488;-71
2021/09/11 01:25:54;;;;;;;12.20;5.65;;;16.50;99.90;;;;;;5000564;28;20026;-71
2021/09/11 01:28:21;;;;;;;12.23;6.05;;;16.50;99.90;;;;;;4994234;28;20038;-71
2021/09/11 01:30:47;;;;;;;14.45;5.50;;;16.50;99.90;;;;;;5000878;28;20065;-71
2021/09/11 01:33:12;;;;;;;11.48;4.78;;;16.50;99.90;;;;;;5000897;28;20491;-72
2021/09/11 01:35:38;;;;;;;12.45;5.32;;;16.50;99.90;;;;;;5000621;28;20080;-72
2021/09/11 01:38:05;;;;;;;12.65;5.85;;;16.50;99.90;;;;;;4999443;28;20433;-72
2021/09/11 01:40:31;;;;;;;13.68;5.22;;;16.50;99.90;;;;;;5006250;28;20035;-72
2021/09/11 01:42:57;;;;;;;12.38;4.70;;;16.50;99.90;;;;;;4984534;28;20037;-71
2021/09/11 01:45:23;;;;;;;18.45;6.15;;;16.40;99.90;;;;;;4999026;28;20559;-71
2021/09/11 01:47:49;;;;;;;14.27;5.72;;;16.50;99.90;;;;;;4984940;28;20047;-72
2021/09/11 01:50:18;;;;;;;10.40;4.95;;;16.40;99.90;;;;;;4999121;28;20031;-71
2021/09/11 01:52:43;;;;;;;17.27;4.60;;;16.40;99.90;;;;;;5000633;28;20053;-72
2021/09/11 01:55:11;;;;;;;11.32;4.30;;;16.40;99.90;;;;;;4983083;28;20490;-72
2021/09/11 01:57:38;;;;;;;10.15;4.53;;;16.40;99.90;;;;;;4999517;28;20173;-71
2021/09/11 02:00:12;;;;;;;14.27;4.95;;;16.40;99.90;;;;;;5001732;28;20513;-72
2021/09/11 02:02:38;;;;;;;10.30;4.15;;;16.40;99.90;;;;;;4999849;28;20501;-72
2021/09/11 02:05:05;;;;;;;23.92;4.85;;;16.40;99.90;;;;;;5001384;28;20042;-72
2021/09/11 02:07:31;;;;;;;11.48;4.40;;;16.40;99.90;;;;;;4985053;28;20037;-72
2021/09/11 02:09:56;;;;;;;9.07;3.83;;;16.40;99.90;;;;;;4980625;28;20073;-72
2021/09/11 02:12:22;;;;;;;10.68;4.25;;;16.30;99.90;;;;;;4998794;28;20479;-70
2021/09/11 02:14:47;;;;;;;10.35;4.55;;;16.40;99.90;;;;;;5001923;28;20112;-69
2021/09/11 02:17:13;;;;;;;12.57;4.30;;;16.40;99.90;;;;;;5002105;28;20116;-70
2021/09/11 02:19:39;;;;;;;8.75;3.83;;;16.40;99.90;;;;;;5000281;28;20030;-71
2021/09/11 02:22:10;;;;;;;10.38;3.53;;;16.40;99.90;;;;;;5000194;28;20125;-69
2021/09/11 02:24:37;;;;;;;7.63;3.85;;;16.50;99.90;;;;;;5000225;28;20054;-69
2021/09/11 02:27:03;;;;;;;7.13;3.97;;;16.50;99.90;;;;;;5003307;28;20072;-70
2021/09/11 02:29:29;;;;;;;8.60;3.65;;;16.50;99.90;;;;;;4998127;28;20066;-69
2021/09/11 02:31:54;;;;;;;10.38;4.18;;;16.60;99.90;;;;;;4998017;28;20593;-70
2021/09/11 02:34:20;;;;;;;13.38;3.63;;;16.60;99.90;;;;;;5001216;28;20025;-70
2021/09/11 02:36:46;;;;;;;10.32;3.90;;;16.60;99.90;;;;;;4980206;28;20042;-70
2021/09/11 02:39:11;;;;;;;11.63;4.18;;;16.70;99.90;;;;;;5000477;28;20126;-69
2021/09/11 02:41:37;;;;;;;7.93;4.30;;;16.70;99.90;;;;;;5003733;28;20039;-69
2021/09/11 02:44:03;;;;;;;11.38;3.65;;;16.70;99.90;;;;;;5000194;28;20096;-70
2021/09/11 02:46:30;;;;;;;8.50;3.75;;;16.80;99.90;;;;;;4997927;28;20615;-69
2021/09/11 02:48:56;;;;;;;12.07;4.57;;;16.80;99.90;;;;;;5000769;28;20044;-70
2021/09/11 02:51:23;;;;;;;7.38;3.72;;;16.80;99.90;;;;;;4998808;28;20061;-70
2021/09/11 02:53:48;;;;;;;11.52;4.18;;;16.90;99.90;;;;;;4997444;28;20027;-70
2021/09/11 02:56:14;;;;;;;12.30;4.20;;;16.90;99.90;;;;;;5000698;28;20053;-69
2021/09/11 02:58:39;;;;;;;9.52;4.22;;;16.90;99.90;;;;;;4997534;28;20113;-69
2021/09/11 03:01:05;;;;;;;13.80;4.68;;;16.90;99.90;;;;;;5001328;28;20041;-69
2021/09/11 03:03:30;;;;;;;9.70;4.03;;;16.90;99.90;;;;;;5000884;28;20445;-70
2021/09/11 03:05:56;;;;;;;13.02;4.63;;;17.00;99.90;;;;;;4997720;28;20080;-70
2021/09/11 03:08:21;;;;;;;14.57;5.13;;;16.90;99.90;;;;;;5001113;28;20122;-69
2021/09/11 03:10:48;;;;;;;7.32;4.22;;;17.00;99.90;;;;;;4998157;28;20038;-70
2021/09/11 03:13:13;;;;;;;10.82;4.45;;;17.00;99.90;;;;;;5000616;28;20041;-70
2021/09/11 03:15:39;;;;;;;12.27;5.35;;;17.00;99.90;;;;;;4999007;28;20040;-70
2021/09/11 03:18:04;;;;;;;13.40;4.63;;;17.00;99.90;;;;;;4999844;28;20505;-70
2021/09/11 03:20:30;;;;;;;13.88;4.85;;;17.10;99.90;;;;;;5000377;28;20037;-70
2021/09/11 03:22:56;;;;;;;10.65;5.45;;;17.10;99.90;;;;;;4997412;28;20706;-70
2021/09/11 03:25:21;;;;;;;12.07;5.63;;;17.10;99.90;;;;;;4998130;28;20041;-70
2021/09/11 03:27:47;;;;;;;14.70;5.45;;;17.10;99.90;;;;;;4997788;28;20434;-70
2021/09/11 03:30:12;;;;;;;13.40;6.57;;;17.10;99.90;;;;;;4983063;28;20054;-70
2021/09/11 03:32:38;;;;;;;17.15;6.30;;;17.10;99.90;;;;;;4999384;28;20638;-70
2021/09/11 03:35:04;;;;;;;13.43;6.07;;;17.10;99.90;;;;;;4982138;28;20042;-70
2021/09/11 03:37:29;;;;;;;14.90;6.28;;;17.10;99.90;;;;;;4999907;28;20030;-70
2021/09/11 03:39:55;;;;;;;16.50;6.10;;;17.10;99.90;;;;;;4986376;28;20050;-71
2021/09/11 03:42:21;;;;;;;15.88;6.55;;;17.10;99.90;;;;;;5000725;28;20034;-70
2021/09/11 03:44:46;;;;;;;15.32;7.68;;;17.10;99.90;;;;;;5004955;28;20536;-70
2021/09/11 03:47:12;;;;;;;14.23;7.30;;;17.10;99.90;;;;;;4983879;28;20026;-70
2021/09/11 03:49:37;;;;;;;18.45;6.57;;;17.10;99.90;;;;;;4990668;28;20125;-70
2021/09/11 03:52:03;;;;;;;15.63;6.57;;;17.10;99.90;;;;;;4985354;28;20045;-71
2021/09/11 03:54:29;;;;;;;17.02;6.65;;;17.10;99.90;;;;;;5003188;28;20038;-70
2021/09/11 03:56:54;;;;;;;21.02;7.05;;;17.10;99.90;;;;;;5004515;28;20057;-70
2021/09/11 03:59:20;;;;;;;14.30;6.75;;;17.10;99.90;;;;;;5001286;28;20126;-70
2021/09/11 04:01:45;;;;;;;14.23;6.22;;;17.10;99.90;;;;;;5005521;28;20038;-70
2021/09/11 04:04:11;;;;;;;14.18;6.68;;;17.10;99.90;;;;;;5001454;28;20479;-70
2021/09/11 04:06:36;;;;;;;18.52;7.03;;;17.20;99.90;;;;;;5003511;28;20053;-70
2021/09/11 04:09:02;;;;;;;14.70;6.75;;;17.20;99.90;;;;;;5002345;28;20030;-71
2021/09/11 04:11:28;;;;;;;21.20;7.35;;;17.10;99.90;;;;;;4985161;28;20039;-70
2021/09/11 04:13:54;;;;;;;20.42;8.07;;;17.10;99.90;;;;;;4987429;28;20030;-70
2021/09/11 04:16:19;;;;;;;22.00;7.55;;;17.10;99.90;;;;;;5003732;28;20379;-70
2021/09/11 04:18:45;;;;;;;14.77;7.05;;;17.20;99.90;;;;;;5009114;28;20117;-70
2021/09/11 04:21:10;;;;;;;19.83;7.20;;;17.20;99.90;;;;;;5000948;28;20038;-70
2021/09/11 04:23:36;;;;;;;17.17;6.90;;;17.10;99.90;;;;;;5001345;28;20041;-70
2021/09/11 04:26:01;;;;;;;16.02;6.68;;;17.10;99.90;;;;;;5002956;28;20039;-70
2021/09/11 04:28:27;;;;;;;12.32;6.40;;;17.10;99.90;;;;;;5002756;28;20030;-70
2021/09/11 04:30:53;;;;;;;14.95;6.22;;;17.10;99.90;;;;;;5001636;28;20034;-70
2021/09/11 04:33:18;;;;;;;14.90;6.80;;;17.10;99.90;;;;;;5003856;28;20667;-70
2021/09/11 04:35:44;;;;;;;14.48;6.28;;;17.10;99.90;;;;;;5000460;28;20038;-71
2021/09/11 04:38:10;;;;;;;18.55;6.38;;;17.20;99.90;;;;;;5003624;28;20036;-71
2021/09/11 04:40:35;;;;;;;16.98;5.70;;;17.20;99.90;;;;;;5006057;28;20034;-70
2021/09/11 04:43:03;;;;;;;15.82;5.65;;;17.20;99.90;;;;;;5002337;28;20029;-70
2021/09/11 04:45:29;;;;;;;21.67;6.10;;;17.10;99.90;;;;;;5004494;28;20034;-70
2021/09/11 04:47:54;;;;;;;13.63;6.18;;;17.10;99.90;;;;;;5001410;28;20022;-70
2021/09/11 04:50:20;;;;;;;16.10;5.40;;;17.10;99.90;;;;;;4985133;28;20113;-70
2021/09/11 04:52:46;;;;;;;21.40;6.93;;;17.20;99.90;;;;;;4981670;28;20686;-71
2021/09/11 04:55:11;;;;;;;13.38;5.82;;;17.20;99.90;;;;;;5000080;28;20038;-71
2021/09/11 04:57:37;;;;;;;17.48;6.47;;;17.20;99.90;;;;;;5002756;28;20076;-70
2021/09/11 05:00:04;;;;;;;15.43;5.75;;;17.20;99.90;;;;;;5001760;28;20034;-70
2021/09/11 05:02:30;;;;;;;11.77;5.80;;;17.20;99.90;;;;;;5001895;28;20479;-71
2021/09/11 05:04:56;;;;;;;16.00;6.55;;;17.10;99.90;;;;;;4986215;28;20030;-70
2021/09/11 05:07:21;;;;;;;14.75;6.57;;;17.20;99.90;;;;;;5001943;28;20026;-70
2021/09/11 05:09:47;;;;;;;12.13;5.68;;;17.20;99.90;;;;;;4982803;28;20512;-70
2021/09/11 05:12:13;;;;;;;9.75;5.45;;;17.20;99.90;;;;;;4985394;28;20029;-71
2021/09/11 05:14:38;;;;;;;16.30;6.32;;;17.20;99.90;;;;;;5000347;28;20034;-70
2021/09/11 05:17:04;;;;;;;14.85;6.15;;;17.20;99.90;;;;;;5007690;28;20121;-70
2021/09/11 05:19:29;;;;;;;14.45;5.78;;;17.20;99.90;;;;;;4986567;28;20213;-70
2021/09/11 05:21:55;;;;;;;11.35;5.68;;;17.20;99.90;;;;;;4999353;28;20035;-70
2021/09/11 05:24:21;;;;;;;13.75;5.30;;;17.20;99.90;;;;;;5002105;28;20064;-71
2021/09/11 05:26:46;;;;;;;11.90;5.47;;;17.20;99.90;;;;;;4999572;28;20041;-70
2021/09/11 05:29:12;;;;;;;11.65;5.03;;;17.20;99.90;;;;;;4985343;28;20043;-70
2021/09/11 05:31:38;;;;;;;16.30;5.72;;;17.20;99.90;;;;;;5002724;28;20049;-70
2021/09/11 05:34:05;;;;;;;20.65;6.00;;;17.30;99.90;;;;;;5000139;28;20038;-70
2021/09/11 05:36:32;;;;;;;16.08;5.82;;;17.30;99.90;;;;;;5001081;28;20085;-71
2021/09/11 05:38:57;;;;;;;18.63;7.10;;;17.20;99.90;;;;;;5001292;28;20824;-70
2021/09/11 05:41:23;;;;;;;16.35;6.97;;;17.20;99.90;;;;;;5003334;28;20045;-71
2021/09/11 05:43:48;;;;;;;15.93;6.47;;;17.20;99.90;;;;;;4984815;28;20037;-70
2021/09/11 05:46:14;;;;;;;21.88;7.07;;;17.20;99.90;;;;;;4999082;28;20034;-70
2021/09/11 05:48:40;;;;;;;14.25;7.00;;;17.30;99.90;;;;;;5002209;28;20557;-71
2021/09/11 05:51:05;;;;;;;15.25;6.25;;;17.30;99.90;;;;;;4999834;28;20038;-70
2021/09/11 05:53:31;;;;;;;12.90;5.90;;;17.30;99.90;;;;;;4983738;28;20043;-70
2021/09/11 05:55:57;;;;;;;14.93;6.53;;;17.30;99.90;;;;;;5000593;28;20030;-70
2021/09/11 05:58:23;;;;;;;13.48;7.28;;;17.30;99.90;;;;;;5000175;28;20065;-71
2021/09/11 06:00:49;;;;;;;17.27;6.55;;;17.30;99.90;;;;;;5001924;28;20097;-70
2021/09/11 06:03:15;;;;;;;15.35;6.07;;;17.30;99.90;;;;;;4998673;28;20035;-70
2021/09/11 06:05:40;;;;;;;13.25;5.88;;;17.30;99.90;;;;;;4984330;28;20112;-71
2021/09/11 06:08:06;;;;;;;12.40;6.07;;;17.30;99.90;;;;;;4984290;28;20042;-71
2021/09/11 06:10:32;;;;;;;21.92;6.82;;;17.40;99.90;;;;;;4999178;28;20031;-71
2021/09/11 06:12:59;;;;;;;15.48;8.00;;;17.40;99.90;;;;;;5003105;28;20036;-71
2021/09/11 06:15:25;;;;;;;13.85;6.60;;;17.40;99.90;;;;;;5000437;28;20027;-71
2021/09/11 06:17:51;;;;;;;18.88;7.25;;;17.40;99.90;;;;;;5007240;28;20031;-71
2021/09/11 06:20:16;;;;;;;22.80;6.80;;;17.40;99.90;;;;;;5009124;28;20049;-71
2021/09/11 06:22:42;;;;;;;23.95;6.40;;;17.40;99.90;;;;;;5004451;28;20454;-71
2021/09/11 06:25:08;;;;;;;18.25;7.65;;;17.40;99.90;;;;;;4981498;28;20986;-71
2021/09/11 06:27:34;;;;;;;15.40;7.13;;;17.40;99.90;;;;;;5001468;28;20030;-71
2021/09/11 06:30:00;;;;;;;23.10;7.65;;;17.50;99.90;;;;;;4998815;28;20133;-71
2021/09/11 06:32:25;;;;;;;17.00;7.30;;;17.50;99.90;;;;;;4982608;28;20084;-71
2021/09/11 06:34:51;;;;;;;17.80;7.57;;;17.50;99.90;;;;;;4990848;28;20034;-71
2021/09/11 06:37:17;;;;;;;16.90;6.88;;;17.50;99.90;;;;;;5002442;28;20034;-71
2021/09/11 06:39:42;;;;;;;17.48;7.32;;;17.60;99.90;;;;;;5003010;28;20079;-71
2021/09/11 06:42:08;;;;;;;26.30;9.13;;;17.60;99.90;;;;;;4998471;28;20034;-71
2021/09/11 06:44:34;;;;;;;16.58;7.68;;;17.60;99.90;;;;;;5000973;28;20045;-72
2021/09/11 06:47:00;;;;;;;16.55;7.38;;;17.60;99.90;;;;;;5001297;28;21622;-71
2021/09/11 06:49:25;;;;;;;14.80;6.50;;;17.60;99.90;;;;;;4981714;28;20038;-71
2021/09/11 06:51:51;;;;;;;15.65;6.68;;;17.60;99.90;;;;;;5010508;28;20040;-71
2021/09/11 06:54:16;;;;;;;15.85;6.32;;;17.70;99.90;;;;;;4982461;28;20050;-71
2021/09/11 06:56:42;;;;;;;15.38;6.38;;;17.70;99.90;;;;;;4980199;28;20030;-70
2021/09/11 06:59:08;;;;;;;18.48;6.82;;;17.80;99.90;;;;;;5001820;28;20533;-71
2021/09/11 07:01:33;;;;;;;15.70;5.93;;;17.80;99.90;;;;;;4997547;28;20513;-72
2021/09/11 07:03:59;;;;;;;16.33;7.55;;;17.70;99.90;;;;;;5000985;28;20120;-71
2021/09/11 07:06:24;;;;;;;13.05;5.93;;;17.80;99.90;;;;;;4998525;28;20029;-71
2021/09/11 07:08:51;;;;;;;17.27;6.18;;;17.90;99.90;;;;;;4995478;28;20042;-70
2021/09/11 07:11:16;;;;;;;17.05;5.55;;;17.90;99.90;;;;;;5000181;28;20125;-70
2021/09/11 07:13:42;;;;;;;12.13;5.75;;;18.00;99.90;;;;;;5001442;28;20109;-72
2021/09/11 07:16:07;;;;;;;12.77;6.03;;;18.00;99.90;;;;;;5001574;28;20042;-71
2021/09/11 07:18:33;;;;;;;16.67;5.43;;;18.00;99.90;;;;;;5007560;28;20038;-71
2021/09/11 07:20:59;;;;;;;21.55;5.60;;;18.00;99.90;;;;;;5004932;28;20077;-71
2021/09/11 07:23:26;;;;;;;13.15;5.47;;;18.10;99.90;;;;;;5006849;28;20043;-71
2021/09/11 07:25:52;;;;;;;13.38;6.15;;;18.10;99.90;;;;;;5009597;28;20041;-71
2021/09/11 07:28:17;;;;;;;13.57;5.07;;;18.20;99.90;;;;;;5005828;28;20088;-71
2021/09/11 07:30:43;;;;;;;10.05;4.75;;;18.30;99.90;;;;;;5006534;28;20034;-71
2021/09/11 07:33:08;;;;;;;14.60;5.75;;;18.40;99.90;;;;;;5004786;28;20034;-71
2021/09/11 07:35:34;;;;;;;12.73;6.03;;;18.40;99.90;;;;;;5001348;28;20062;-72
2021/09/11 07:38:00;;;;;;;9.63;5.28;;;18.50;99.90;;;;;;5003374;28;20037;-71
2021/09/11 07:40:25;;;;;;;11.85;4.57;;;18.50;99.90;;;;;;5004021;28;20030;-71
2021/09/11 07:42:51;;;;;;;16.20;6.13;;;18.50;99.90;;;;;;5001251;28;20477;-72
2021/09/11 07:45:17;;;;;;;14.18;4.85;;;18.50;99.90;;;;;;4999855;28;20491;-71
2021/09/11 07:47:42;;;;;;;16.52;4.85;;;18.50;99.90;;;;;;5002236;28;20034;-73
2021/09/11 07:50:10;;;;;;;13.25;5.15;;;18.60;99.90;;;;;;4987681;28;20034;-71
2021/09/11 07:52:36;;;;;;;14.52;6.00;;;18.60;99.90;;;;;;5001180;28;20034;-72
2021/09/11 07:55:03;;;;;;;12.75;5.78;;;18.70;99.90;;;;;;5002290;28;20038;-71
2021/09/11 07:57:29;;;;;;;13.68;5.10;;;18.60;99.90;;;;;;5009657;28;20034;-72
2021/09/11 07:59:55;;;;;;;13.70;5.15;;;18.70;99.90;;;;;;5002502;28;20049;-72
2021/09/11 08:02:21;;;;;;;14.15;5.53;;;18.80;99.90;;;;;;5002446;28;20038;-72
2021/09/11 08:04:47;;;;;;;12.10;5.55;;;18.90;99.90;;;;;;5000401;28;20144;-72
2021/09/11 08:07:12;;;;;;;17.00;5.72;;;19.00;99.90;;;;;;5003772;28;20029;-72
2021/09/11 08:09:38;;;;;;;11.52;5.65;;;18.90;99.90;;;;;;5034725;22;20169;-61
2021/09/11 08:12:04;;;;;;;10.98;5.22;;;19.00;99.90;;;;;;5048212;28;20125;-62
2021/09/11 08:14:29;;;;;;;13.70;5.68;;;18.90;99.90;;;;;;5042342;28;20059;-62
2021/09/11 08:16:55;;;;;;;12.13;5.57;;;18.90;99.90;;;;;;5042936;28;20041;-61
2021/09/11 08:19:21;;;;;;;17.25;5.10;;;18.90;99.90;;;;;;5041784;28;20033;-62
2021/09/11 08:21:46;;;;;;;11.38;5.88;;;19.00;99.90;;;;;;5040320;28;20033;-61
2021/09/11 08:24:12;;;;;;;11.65;5.65;;;18.90;99.90;;;;;;5041517;28;20459;-61
2021/09/11 08:26:38;;;;;;;14.77;5.63;;;19.00;99.90;;;;;;5046372;28;20232;-61
2021/09/11 08:29:03;;;;;;;13.52;5.43;;;19.00;99.90;;;;;;5036983;28;20471;-61
2021/09/11 08:31:29;;;;;;;12.27;5.82;;;19.00;99.90;;;;;;5036001;28;20047;-61
2021/09/11 08:33:55;;;;;;;12.25;5.28;;;19.10;99.90;;;;;;5035425;28;20352;-61
2021/09/11 08:36:22;;;;;;;13.02;6.32;;;19.20;99.90;;;;;;5040065;28;20384;-61
2021/09/11 08:38:48;;;;;;;17.98;7.00;;;19.30;99.90;;;;;;5045533;28;20048;-61
2021/09/11 08:41:13;;;;;;;13.57;5.25;;;19.40;99.90;;;;;;5030570;28;20080;-61
2021/09/11 08:43:39;;;;;;;12.85;5.50;;;19.60;99.90;;;;;;5039779;28;20045;-61
2021/09/11 08:46:05;;;;;;;12.73;5.85;;;19.70;99.90;;;;;;5040080;28;20033;-61
2021/09/11 08:48:30;;;;;;;12.93;5.03;;;19.70;99.90;;;;;;5037081;28;20481;-61
2021/09/11 08:50:56;;;;;;;13.60;4.95;;;19.90;99.90;;;;;;5036749;28;20480;-61
2021/09/11 08:53:22;;;;;;;16.52;5.45;;;19.90;99.90;;;;;;5038315;28;20036;-63
2021/09/11 08:55:48;;;;;;;13.60;5.63;;;20.00;99.90;;;;;;5038559;28;20044;-60
2021/09/11 08:58:19;;;;;;;17.40;6.47;;;20.00;99.90;;;;;;5038726;28;20453;-61
2021/09/11 09:00:50;;;;;;;13.85;5.93;;;20.10;99.90;;;;;;5038243;28;20485;-60
2021/09/11 09:03:30;;;;;;;15.15;5.82;;;20.10;99.90;;;;;;5038750;28;20033;-60
2021/09/11 09:06:01;;;;;;;14.98;6.00;;;20.10;99.90;;;;;;5037932;28;20543;-60
2021/09/11 09:08:28;;;;;;;13.25;4.80;;;20.10;99.90;;;;;;5039837;28;20128;-61
2021/09/11 09:10:55;;;;;;;12.90;6.03;;;20.20;99.90;;;;;;5035831;28;20050;-61
2021/09/11 09:13:21;;;;;;;10.40;4.93;;;20.20;99.90;;;;;;5047234;28;20135;-61
2021/09/11 09:15:47;;;;;;;20.55;5.82;;;20.40;99.90;;;;;;5048671;28;20124;-61
2021/09/11 09:18:15;;;;;;;10.35;4.55;;;20.50;99.90;;;;;;5039961;28;20037;-60
2021/09/11 09:20:41;;;;;;;17.27;5.35;;;20.60;99.90;;;;;;5037270;28;20038;-61
2021/09/11 09:23:07;;;;;;;12.18;5.28;;;20.50;99.90;;;;;;5038181;28;20029;-61
2021/09/11 09:25:35;;;;;;;10.85;5.38;;;20.50;99.90;;;;;;5038180;28;20041;-61
2021/09/11 09:28:05;;;;;;;8.93;5.10;;;20.60;99.90;;;;;;5039085;28;20647;-62
2021/09/11 09:30:48;;;;;;;17.58;5.47;;;20.50;99.90;;;;;;5041257;28;20378;-60
2021/09/11 09:33:18;;;;;;;13.52;4.95;;;20.50;99.90;;;;;;5042686;28;20365;-61
2021/09/11 09:35:44;;;;;;;9.47;5.50;;;20.40;99.90;;;;;;5043971;28;20484;-61
2021/09/11 09:38:10;;;;;;;10.23;5.53;;;20.40;99.90;;;;;;5044419;28;20275;-61
2021/09/11 09:40:46;;;;;;;13.85;5.35;;;20.30;99.90;;;;;;5047420;28;20028;-61
2021/09/11 09:43:26;;;;;;;11.80;5.25;;;20.30;99.90;;;;;;5048333;28;20033;-60
2021/09/11 09:46:09;;;;;;;15.38;5.78;;;20.40;99.90;;;;;;5041072;28;20029;-61
2021/09/11 09:48:36;;;;;;;14.90;5.90;;;20.40;99.90;;;;;;5038141;28;20544;-61
2021/09/11 09:51:13;;;;;;;12.45;5.10;;;20.40;99.90;;;;;;5021813;28;20040;-61
2021/09/11 09:53:42;;;;;;;14.10;5.03;;;20.50;99.90;;;;;;5045787;28;20032;-61
2021/09/11 09:56:08;;;;;;;13.20;4.80;;;20.70;99.90;;;;;;5049782;28;20040;-61
2021/09/11 09:58:35;;;;;;;8.95;4.57;;;20.80;99.90;;;;;;5050179;28;20115;-62
2021/09/11 10:01:01;;;;;;;9.00;4.55;;;20.90;99.90;;;;;;5049959;28;20595;-61
2021/09/11 10:03:27;;;;;;;11.82;5.50;;;21.00;99.90;;;;;;5050190;28;20055;-61
2021/09/11 10:06:18;;;;;;;15.10;5.80;;;21.00;99.90;;;;;;5048280;28;20037;-61
2021/09/11 10:08:47;;;;;;;9.07;4.90;;;21.20;99.90;;;;;;5034793;28;20052;-61
2021/09/11 10:11:13;;;;;;;13.40;5.35;;;21.30;99.90;;;;;;5048260;28;20052;-61
2021/09/11 10:13:56;;;;;;;7.75;4.80;;;21.30;99.90;;;;;;5050887;28;20526;-61
2021/09/11 10:16:33;;;;;;;9.50;4.72;;;21.40;99.90;;;;;;5057679;28;20116;-61
2021/09/11 10:19:00;;;;;;;10.23;5.18;;;21.40;99.90;;;;;;5045599;28;20365;-60
2021/09/11 10:21:35;;;;;;;10.00;4.78;;;21.40;99.90;;;;;;5048642;28;20036;-61
2021/09/11 10:24:01;;;;;;;6.00;4.00;;;21.40;99.90;;;;;;5036947;28;20041;-61
2021/09/11 10:26:52;;;;;;;9.50;4.43;;;21.40;99.90;;;;;;5041053;28;20119;-61
2021/09/11 10:29:35;;;;;;;7.43;4.10;;;21.50;99.90;;;;;;5038369;28;20049;-61
2021/09/11 10:32:07;;;;;;;6.80;3.78;;;21.50;99.90;;;;;;5019318;28;20053;-61
2021/09/11 10:34:49;;;;;;;8.90;4.40;;;21.50;99.90;;;;;;5040126;28;20396;-61
2021/09/11 10:37:28;;;;;;;7.65;3.90;;;21.40;99.90;;;;;;5039286;28;20041;-61
2021/09/11 10:40:32;;;;;;;8.90;4.13;;;21.50;99.90;;;;;;5044599;28;20115;-61
2021/09/11 10:43:06;;;;;;;9.52;4.57;;;21.60;99.90;;;;;;4990241;28;20496;-61
2021/09/11 10:45:58;;;;;;;10.02;4.30;;;21.70;99.90;;;;;;5043015;28;20400;-61
2021/09/11 10:48:49;;;;;;;9.85;4.65;;;21.80;99.90;;;;;;5049261;28;20041;-61
2021/09/11 10:51:35;;;;;;;7.57;4.22;;;21.80;99.90;;;;;;5035926;28;20038;-61
2021/09/11 10:54:07;;;;;;;10.73;4.85;;;21.70;99.90;;;;;;5040079;28;20392;-60
2021/09/11 10:56:51;;;;;;;9.55;4.28;;;21.90;99.90;;;;;;5036215;28;20175;-61
2021/09/11 10:59:20;;;;;;;9.85;4.05;;;21.90;99.90;;;;;;5035704;28;20038;-61
2021/09/11 11:01:58;;;;;;;8.30;4.55;;;21.90;99.90;;;;;;5039709;28;20440;-61
2021/09/11 11:04:27;;;;;;;13.20;4.63;;;22.00;99.90;;;;;;5039262;28;20041;-62
2021/09/11 11:06:55;;;;;;;9.53;4.77;;;21.90;99.90;;;;;;5033844;28;20021;-61
2021/09/11 11:09:21;;;;;;;11.82;5.53;;;21.90;99.90;;;;;;5032157;28;20094;-61
2021/09/11 11:11:49;;;;;;;7.32;4.38;;;22.10;99.90;;;;;;5034230;28;20033;-61
2021/09/11 11:14:15;;;;;;;7.88;4.18;;;22.00;99.90;;;;;;5036812;28;20048;-61
2021/09/11 11:16:52;;;;;;;11.32;4.88;;;22.10;99.90;;;;;;5036845;28;20033;-61
2021/09/11 11:19:24;;;;;;;8.70;4.63;;;22.10;99.90;;;;;;5035619;28;20140;-61
2021/09/11 11:21:54;;;;;;;10.88;4.50;;;22.00;99.90;;;;;;5035472;28;20116;-62
2021/09/11 11:24:20;;;;;;;7.60;4.15;;;22.10;99.90;;;;;;5035048;28;20520;-61
2021/09/11 11:26:47;;;;;;;6.22;4.05;;;22.20;99.90;;;;;;5039141;28;20037;-61
2021/09/11 11:29:15;;;;;;;5.78;3.88;;;22.30;99.90;;;;;;5037805;28;20044;-61
2021/09/11 11:31:42;;;;;;;6.03;3.75;;;22.40;99.90;;;;;;5036419;28;20084;-61
2021/09/11 11:34:08;;;;;;;6.13;4.05;;;22.50;99.90;;;;;;5043787;28;20107;-60
2021/09/11 11:36:33;;;;;;;6.15;4.35;;;22.60;99.90;;;;;;5040483;28;20037;-61
2021/09/11 11:39:28;;;;;;;5.40;3.30;;;22.70;99.90;;;;;;5040604;28;20036;-61
2021/09/11 11:41:58;;;;;;;8.50;3.92;;;22.70;99.90;;;;;;5041355;28;20025;-61
2021/09/11 11:44:25;;;;;;;6.47;4.25;;;22.80;99.90;;;;;;5017733;28;20087;-62
2021/09/11 11:47:13;;;;;;;7.43;4.15;;;22.80;99.90;;;;;;5034535;28;25030;-61
2021/09/11 11:49:40;;;;;;;6.22;3.47;;;22.80;99.90;;;;;;4998872;28;20037;-61
2021/09/11 11:52:07;;;;;;;6.60;3.85;;;22.70;99.90;;;;;;5044224;28;20430;-61
2021/09/11 11:54:35;;;;;;;5.38;3.17;;;22.70;99.90;;;;;;5043052;28;20047;-61
2021/09/11 11:57:09;;;;;;;6.53;3.40;;;22.60;99.90;;;;;;5044279;28;20033;-61
2021/09/11 11:59:36;;;;;;;7.32;3.47;;;22.50;99.90;;;;;;5041076;28;20044;-61
2021/09/11 12:02:17;;;;;;;4.95;3.25;;;22.30;99.90;;;;;;5044890;28;20056;-61
2021/09/11 12:04:42;;;;;;;7.78;3.58;;;22.10;99.90;;;;;;5050357;28;20597;-61
2021/09/11 12:07:08;;;;;;;7.65;2.85;;;22.00;99.90;;;;;;5047327;28;20029;-61
2021/09/11 12:09:34;;;;;;;8.73;2.83;;;22.00;99.90;;;;;;5048171;28;20037;-61
2021/09/11 12:12:04;;;;;;;5.70;2.08;;;22.20;99.90;;;;;;5047044;28;20251;-61
2021/09/11 12:14:29;;;;;;;;;;;22.20;99.90;;;;;;5051460;28;20056;-62
2021/09/11 12:16:55;;;;;;;3.25;2.30;;;22.40;99.90;;;;;;5049784;28;20403;-61
2021/09/11 12:19:21;;;;;;;5.78;2.95;;;22.60;99.90;;;;;;5048780;28;20041;-61
2021/09/11 12:21:49;;;;;;;6.82;3.00;;;22.60;99.90;;;;;;5046297;28;20033;-60
2021/09/11 12:24:23;;;;;;;5.32;3.05;;;22.60;99.90;;;;;;5051907;28;20053;-62
2021/09/11 12:26:49;;;;;;;4.72;1.30;;;22.40;99.90;;;;;;5025536;28;20519;-62
2021/09/11 12:29:16;;;;;;;1.38;0.73;;;22.20;99.90;;;;;;5047791;28;20037;-61
2021/09/11 12:31:56;;;;;;;3.15;0.82;;;21.80;99.90;;;;;;5048515;28;20477;-61
2021/09/11 12:34:22;;;;;;;2.27;1.13;;;21.50;99.90;;;;;;5046731;28;20114;-61
2021/09/11 12:36:50;;;;;;;1.77;0.70;;;21.20;99.90;;;;;;5044289;28;20108;-61
2021/09/11 12:39:15;;;;;;;2.85;0.98;;;21.00;99.90;;;;;;5048405;28;20033;-61
2021/09/11 12:41:43;;;;;;;2.40;1.00;;;21.00;99.90;;;;;;5047391;28;20039;-61